首页
METAR-TAF:

METAR-TAF

机场 :

塞拉萊機場

塞拉莱, 阿曼

纬度: 17-02N, 经度: 054-05E, 海拔: 20米

当前天气观测

该预报发布于1小时和15分钟前的11:50 UTC
风速13节,风向南转西南
温度 32°C
湿度 71%
气压 1004 hPa
能见度10公里或以上
散云层高于2500英尺

METAR: OOSA 171150Z 20013KT 9999 SCT025 32/26 Q1004 NOSIG

时间: 17:05 (13:05 UTC)

预报

该预报发布于2小时和5分钟前的11:00 UTC
预报有效从17日的 12点(UTC)到 18日的 18点(UTC)
风速12节,风向
能见度10公里或以上
少量云层高于1400英尺
多云层高于2500英尺
成为
从 17日的 18点(UTC)到 17日的 20点(UTC)
风速3节,风向多变
成为
从 18日的 06点(UTC)到 18日的 08点(UTC)
风速10节,风向南转西南

TAF: OOSA 171100Z 1712/1818 18012KT 9999 FEW014 BKN025 BECMG 1718/1720 VRB03KT BECMG 1806/1808 20010KT

超过4000个机场的气象观测和天气预报(METAR&TAF报告)。

可查询的气象台以黄色和红色小点在地图上表示。

将鼠标移到小点上方,可查看气象台名称。

然后点击查看天气观测和预报。

如需切换地图:点击带黑十字的绿色按钮放大地图;点击带横线的绿色按钮缩小地图;或者点击绿色箭头查看邻近地区的地图。


METAR-TAF: